sensor_id;sensor_type;location;lat;lon;timestamp;temperature;humidity
18753;DHT22;9505;50.882;5.350;2023-07-16T00:01:59;16.50;99.90
18753;DHT22;9505;50.882;5.350;2023-07-16T00:04:25;16.50;99.90
18753;DHT22;9505;50.882;5.350;2023-07-16T00:06:50;16.40;99.90
18753;DHT22;9505;50.882;5.350;2023-07-16T00:09:16;16.40;99.90
18753;DHT22;9505;50.882;5.350;2023-07-16T00:11:41;16.30;99.90
18753;DHT22;9505;50.882;5.350;2023-07-16T00:14:07;16.30;99.90
18753;DHT22;9505;50.882;5.350;2023-07-16T00:16:33;16.30;99.90
18753;DHT22;9505;50.882;5.350;2023-07-16T00:18:59;16.20;99.90
18753;DHT22;9505;50.882;5.350;2023-07-16T00:21:24;16.30;99.90
18753;DHT22;9505;50.882;5.350;2023-07-16T00:23:50;16.30;99.90
18753;DHT22;9505;50.882;5.350;2023-07-16T00:26:16;16.30;99.90
18753;DHT22;9505;50.882;5.350;2023-07-16T00:28:42;16.20;99.90
18753;DHT22;9505;50.882;5.350;2023-07-16T00:31:07;16.20;99.90
18753;DHT22;9505;50.882;5.350;2023-07-16T00:33:33;16.20;99.90
18753;DHT22;9505;50.882;5.350;2023-07-16T00:35:58;16.20;99.90
18753;DHT22;9505;50.882;5.350;2023-07-16T00:38:24;16.10;99.90
18753;DHT22;9505;50.882;5.350;2023-07-16T00:40:50;16.10;99.90
18753;DHT22;9505;50.882;5.350;2023-07-16T00:43:15;16.10;99.90
18753;DHT22;9505;50.882;5.350;2023-07-16T00:45:42;16.10;99.90
18753;DHT22;9505;50.882;5.350;2023-07-16T00:48:10;16.10;99.90
18753;DHT22;9505;50.882;5.350;2023-07-16T00:50:38;16.10;99.90
18753;DHT22;9505;50.882;5.350;2023-07-16T00:53:08;16.00;99.90
18753;DHT22;9505;50.882;5.350;2023-07-16T00:55:35;16.00;99.90
18753;DHT22;9505;50.882;5.350;2023-07-16T00:58:07;16.10;99.90
18753;DHT22;9505;50.882;5.350;2023-07-16T01:00:38;16.20;99.90
18753;DHT22;9505;50.882;5.350;2023-07-16T01:03:09;16.20;99.90
18753;DHT22;9505;50.882;5.350;2023-07-16T01:06:16;16.30;99.90
18753;DHT22;9505;50.882;5.350;2023-07-16T01:11:43;16.20;99.90
18753;DHT22;9505;50.882;5.350;2023-07-16T01:14:10;16.10;99.90
18753;DHT22;9505;50.882;5.350;2023-07-16T01:16:36;16.10;99.90
18753;DHT22;9505;50.882;5.350;2023-07-16T01:19:02;16.10;99.90
18753;DHT22;9505;50.882;5.350;2023-07-16T01:21:33;16.10;99.90
18753;DHT22;9505;50.882;5.350;2023-07-16T01:27:50;16.10;99.90
18753;DHT22;9505;50.882;5.350;2023-07-16T01:30:04;16.00;99.90
18753;DHT22;9505;50.882;5.350;2023-07-16T01:32:33;16.10;99.90
18753;DHT22;9505;50.882;5.350;2023-07-16T01:34:59;16.10;99.90
18753;DHT22;9505;50.882;5.350;2023-07-16T01:37:25;16.10;99.90
18753;DHT22;9505;50.882;5.350;2023-07-16T01:39:51;16.10;99.90
18753;DHT22;9505;50.882;5.350;2023-07-16T01:42:17;16.00;99.90
18753;DHT22;9505;50.882;5.350;2023-07-16T01:44:42;16.00;99.90
18753;DHT22;9505;50.882;5.350;2023-07-16T01:47:29;16.00;99.90
18753;DHT22;9505;50.882;5.350;2023-07-16T01:49:56;16.10;99.90
18753;DHT22;9505;50.882;5.350;2023-07-16T01:52:22;16.00;99.90
18753;DHT22;9505;50.882;5.350;2023-07-16T01:54:48;16.00;99.90
18753;DHT22;9505;50.882;5.350;2023-07-16T01:57:13;16.00;99.90
18753;DHT22;9505;50.882;5.350;2023-07-16T01:59:39;16.00;99.90
18753;DHT22;9505;50.882;5.350;2023-07-16T02:02:05;15.90;99.90
18753;DHT22;9505;50.882;5.350;2023-07-16T02:04:30;15.90;99.90
18753;DHT22;9505;50.882;5.350;2023-07-16T02:06:56;15.80;99.90
18753;DHT22;9505;50.882;5.350;2023-07-16T02:09:22;15.80;99.90
18753;DHT22;9505;50.882;5.350;2023-07-16T02:11:47;15.80;99.90
18753;DHT22;9505;50.882;5.350;2023-07-16T02:14:13;15.70;99.90
18753;DHT22;9505;50.882;5.350;2023-07-16T02:16:39;15.70;99.90
18753;DHT22;9505;50.882;5.350;2023-07-16T02:19:05;15.70;99.90
18753;DHT22;9505;50.882;5.350;2023-07-16T02:21:31;15.60;99.90
18753;DHT22;9505;50.882;5.350;2023-07-16T02:23:56;15.60;99.90
18753;DHT22;9505;50.882;5.350;2023-07-16T02:26:22;15.60;99.90
18753;DHT22;9505;50.882;5.350;2023-07-16T02:28:47;15.50;99.90
18753;DHT22;9505;50.882;5.350;2023-07-16T02:31:13;15.50;99.90
18753;DHT22;9505;50.882;5.350;2023-07-16T02:33:39;15.50;99.90
18753;DHT22;9505;50.882;5.350;2023-07-16T02:36:04;15.50;99.90
18753;DHT22;9505;50.882;5.350;2023-07-16T02:38:31;15.40;99.90
18753;DHT22;9505;50.882;5.350;2023-07-16T02:40:57;15.40;99.90
18753;DHT22;9505;50.882;5.350;2023-07-16T02:43:22;15.50;99.90
18753;DHT22;9505;50.882;5.350;2023-07-16T02:45:48;15.50;99.90
18753;DHT22;9505;50.882;5.350;2023-07-16T02:48:13;15.40;99.90
18753;DHT22;9505;50.882;5.350;2023-07-16T02:50:39;15.40;99.90
18753;DHT22;9505;50.882;5.350;2023-07-16T02:53:06;15.40;99.90
18753;DHT22;9505;50.882;5.350;2023-07-16T02:55:32;15.40;99.90
18753;DHT22;9505;50.882;5.350;2023-07-16T02:57:57;15.30;99.90
18753;DHT22;9505;50.882;5.350;2023-07-16T03:00:23;15.30;99.90
18753;DHT22;9505;50.882;5.350;2023-07-16T03:02:49;15.30;99.90
18753;DHT22;9505;50.882;5.350;2023-07-16T03:05:16;15.20;99.90
18753;DHT22;9505;50.882;5.350;2023-07-16T03:07:42;15.20;99.90
18753;DHT22;9505;50.882;5.350;2023-07-16T03:10:08;15.10;99.90
18753;DHT22;9505;50.882;5.350;2023-07-16T03:12:34;15.10;99.90
18753;DHT22;9505;50.882;5.350;2023-07-16T03:14:59;15.10;99.90
18753;DHT22;9505;50.882;5.350;2023-07-16T03:17:25;15.10;99.90
18753;DHT22;9505;50.882;5.350;2023-07-16T03:19:51;15.10;99.90
18753;DHT22;9505;50.882;5.350;2023-07-16T03:22:16;15.10;99.90
18753;DHT22;9505;50.882;5.350;2023-07-16T03:24:42;15.10;99.90
18753;DHT22;9505;50.882;5.350;2023-07-16T03:27:07;15.10;99.90
18753;DHT22;9505;50.882;5.350;2023-07-16T03:29:33;15.10;99.90
18753;DHT22;9505;50.882;5.350;2023-07-16T03:32:00;15.10;99.90
18753;DHT22;9505;50.882;5.350;2023-07-16T03:34:25;15.00;99.90
18753;DHT22;9505;50.882;5.350;2023-07-16T03:36:51;15.00;99.90
18753;DHT22;9505;50.882;5.350;2023-07-16T03:39:17;15.10;99.90
18753;DHT22;9505;50.882;5.350;2023-07-16T03:41:42;15.10;99.90
18753;DHT22;9505;50.882;5.350;2023-07-16T03:44:08;15.00;99.90
18753;DHT22;9505;50.882;5.350;2023-07-16T03:46:33;15.00;99.90
18753;DHT22;9505;50.882;5.350;2023-07-16T03:49:00;14.90;99.90
18753;DHT22;9505;50.882;5.350;2023-07-16T03:51:25;14.80;99.90
18753;DHT22;9505;50.882;5.350;2023-07-16T03:53:51;14.80;99.90
18753;DHT22;9505;50.882;5.350;2023-07-16T03:56:17;14.80;99.90
18753;DHT22;9505;50.882;5.350;2023-07-16T03:58:42;14.80;99.90
18753;DHT22;9505;50.882;5.350;2023-07-16T04:01:09;14.80;99.90
18753;DHT22;9505;50.882;5.350;2023-07-16T04:03:35;14.80;99.90
18753;DHT22;9505;50.882;5.350;2023-07-16T04:06:09;14.80;99.90
18753;DHT22;9505;50.882;5.350;2023-07-16T04:08:35;14.80;99.90
18753;DHT22;9505;50.882;5.350;2023-07-16T04:11:05;14.80;99.90
18753;DHT22;9505;50.882;5.350;2023-07-16T04:13:31;14.90;99.90
18753;DHT22;9505;50.882;5.350;2023-07-16T04:15:57;15.00;99.90
18753;DHT22;9505;50.882;5.350;2023-07-16T04:18:24;15.00;99.90
18753;DHT22;9505;50.882;5.350;2023-07-16T04:20:50;15.00;99.90
18753;DHT22;9505;50.882;5.350;2023-07-16T04:23:16;15.10;99.90
18753;DHT22;9505;50.882;5.350;2023-07-16T04:25:41;15.10;99.90
18753;DHT22;9505;50.882;5.350;2023-07-16T04:28:07;15.10;99.90
18753;DHT22;9505;50.882;5.350;2023-07-16T04:30:33;15.20;99.90
18753;DHT22;9505;50.882;5.350;2023-07-16T04:32:58;15.20;99.90
18753;DHT22;9505;50.882;5.350;2023-07-16T04:35:24;15.30;99.90
18753;DHT22;9505;50.882;5.350;2023-07-16T04:37:49;15.40;99.90
18753;DHT22;9505;50.882;5.350;2023-07-16T04:40:15;15.40;99.90
18753;DHT22;9505;50.882;5.350;2023-07-16T04:42:40;15.40;99.90
18753;DHT22;9505;50.882;5.350;2023-07-16T04:45:06;15.40;99.90
18753;DHT22;9505;50.882;5.350;2023-07-16T04:47:32;15.40;99.90
18753;DHT22;9505;50.882;5.350;2023-07-16T04:49:59;15.40;99.90
18753;DHT22;9505;50.882;5.350;2023-07-16T04:52:24;15.40;99.90
18753;DHT22;9505;50.882;5.350;2023-07-16T04:54:50;15.50;99.90
18753;DHT22;9505;50.882;5.350;2023-07-16T04:57:16;15.50;99.90
18753;DHT22;9505;50.882;5.350;2023-07-16T04:59:41;15.50;99.90
18753;DHT22;9505;50.882;5.350;2023-07-16T05:02:07;15.60;99.90
18753;DHT22;9505;50.882;5.350;2023-07-16T05:04:34;15.70;99.90
18753;DHT22;9505;50.882;5.350;2023-07-16T05:07:01;15.80;99.90
18753;DHT22;9505;50.882;5.350;2023-07-16T05:09:27;15.80;99.90
18753;DHT22;9505;50.882;5.350;2023-07-16T05:11:53;15.90;99.90
18753;DHT22;9505;50.882;5.350;2023-07-16T05:14:19;15.90;99.90
18753;DHT22;9505;50.882;5.350;2023-07-16T05:16:44;15.80;99.90
18753;DHT22;9505;50.882;5.350;2023-07-16T05:19:10;15.90;99.90
18753;DHT22;9505;50.882;5.350;2023-07-16T05:21:36;16.00;99.90
18753;DHT22;9505;50.882;5.350;2023-07-16T05:24:01;16.00;99.90
18753;DHT22;9505;50.882;5.350;2023-07-16T05:26:27;16.30;99.90
18753;DHT22;9505;50.882;5.350;2023-07-16T05:28:53;16.50;99.90
18753;DHT22;9505;50.882;5.350;2023-07-16T05:31:19;16.60;99.90
18753;DHT22;9505;50.882;5.350;2023-07-16T05:33:44;16.50;99.90
18753;DHT22;9505;50.882;5.350;2023-07-16T05:36:10;16.50;99.90
18753;DHT22;9505;50.882;5.350;2023-07-16T05:38:35;16.90;99.90
18753;DHT22;9505;50.882;5.350;2023-07-16T05:41:02;17.60;99.90
18753;DHT22;9505;50.882;5.350;2023-07-16T05:43:28;18.50;99.90
18753;DHT22;9505;50.882;5.350;2023-07-16T05:45:54;20.20;99.90
18753;DHT22;9505;50.882;5.350;2023-07-16T05:48:20;21.40;99.90
18753;DHT22;9505;50.882;5.350;2023-07-16T05:50:45;22.50;99.90
18753;DHT22;9505;50.882;5.350;2023-07-16T05:53:11;23.80;99.90
18753;DHT22;9505;50.882;5.350;2023-07-16T05:55:39;23.90;99.90
18753;DHT22;9505;50.882;5.350;2023-07-16T05:58:05;24.00;99.90
18753;DHT22;9505;50.882;5.350;2023-07-16T06:00:30;23.80;99.90
18753;DHT22;9505;50.882;5.350;2023-07-16T06:02:56;24.90;99.90
18753;DHT22;9505;50.882;5.350;2023-07-16T06:05:22;24.90;99.90
18753;DHT22;9505;50.882;5.350;2023-07-16T06:07:47;24.60;99.90
18753;DHT22;9505;50.882;5.350;2023-07-16T06:10:13;24.30;99.90
18753;DHT22;9505;50.882;5.350;2023-07-16T06:12:39;24.10;99.90
18753;DHT22;9505;50.882;5.350;2023-07-16T06:15:05;23.50;99.90
18753;DHT22;9505;50.882;5.350;2023-07-16T06:17:30;23.70;99.90
18753;DHT22;9505;50.882;5.350;2023-07-16T06:19:56;24.00;99.90
18753;DHT22;9505;50.882;5.350;2023-07-16T06:22:23;24.30;99.90
18753;DHT22;9505;50.882;5.350;2023-07-16T06:24:48;24.90;99.90
18753;DHT22;9505;50.882;5.350;2023-07-16T06:27:14;25.10;99.90
18753;DHT22;9505;50.882;5.350;2023-07-16T06:29:39;24.80;99.90
18753;DHT22;9505;50.882;5.350;2023-07-16T06:32:06;25.70;99.90
18753;DHT22;9505;50.882;5.350;2023-07-16T06:34:32;26.20;99.90
18753;DHT22;9505;50.882;5.350;2023-07-16T06:36:58;26.60;99.90
18753;DHT22;9505;50.882;5.350;2023-07-16T06:39:23;25.60;99.90
18753;DHT22;9505;50.882;5.350;2023-07-16T06:41:49;26.00;99.90
18753;DHT22;9505;50.882;5.350;2023-07-16T06:44:15;25.50;99.90
18753;DHT22;9505;50.882;5.350;2023-07-16T06:46:40;25.30;99.90
18753;DHT22;9505;50.882;5.350;2023-07-16T06:49:06;24.80;99.90
18753;DHT22;9505;50.882;5.350;2023-07-16T06:51:34;24.80;99.90
18753;DHT22;9505;50.882;5.350;2023-07-16T06:54:00;25.40;99.90
18753;DHT22;9505;50.882;5.350;2023-07-16T06:56:26;25.20;99.90
18753;DHT22;9505;50.882;5.350;2023-07-16T06:58:52;23.80;99.90
18753;DHT22;9505;50.882;5.350;2023-07-16T07:01:17;24.30;99.90
18753;DHT22;9505;50.882;5.350;2023-07-16T07:03:43;25.40;99.90
18753;DHT22;9505;50.882;5.350;2023-07-16T07:06:08;25.40;99.90
18753;DHT22;9505;50.882;5.350;2023-07-16T07:08:36;25.20;99.90
18753;DHT22;9505;50.882;5.350;2023-07-16T07:11:04;25.80;99.90
18753;DHT22;9505;50.882;5.350;2023-07-16T07:13:29;25.30;99.90
18753;DHT22;9505;50.882;5.350;2023-07-16T07:15:55;25.40;99.90
18753;DHT22;9505;50.882;5.350;2023-07-16T07:18:21;26.60;99.90
18753;DHT22;9505;50.882;5.350;2023-07-16T07:20:47;26.30;99.90
18753;DHT22;9505;50.882;5.350;2023-07-16T07:23:14;26.40;99.90
18753;DHT22;9505;50.882;5.350;2023-07-16T07:25:39;25.90;99.90
18753;DHT22;9505;50.882;5.350;2023-07-16T07:28:06;25.60;99.90
18753;DHT22;9505;50.882;5.350;2023-07-16T07:30:32;25.00;99.90
18753;DHT22;9505;50.882;5.350;2023-07-16T07:32:58;24.60;99.90
18753;DHT22;9505;50.882;5.350;2023-07-16T07:35:23;24.20;99.90
18753;DHT22;9505;50.882;5.350;2023-07-16T07:37:49;24.50;99.90
18753;DHT22;9505;50.882;5.350;2023-07-16T07:40:15;24.60;99.90
18753;DHT22;9505;50.882;5.350;2023-07-16T07:42:40;25.40;99.90
18753;DHT22;9505;50.882;5.350;2023-07-16T07:45:06;25.00;99.90
18753;DHT22;9505;50.882;5.350;2023-07-16T07:47:32;24.00;99.90
18753;DHT22;9505;50.882;5.350;2023-07-16T07:49:58;25.90;99.90
18753;DHT22;9505;50.882;5.350;2023-07-16T07:52:23;27.30;99.90
18753;DHT22;9505;50.882;5.350;2023-07-16T07:54:49;26.10;99.90
18753;DHT22;9505;50.882;5.350;2023-07-16T07:57:15;24.50;99.90
18753;DHT22;9505;50.882;5.350;2023-07-16T07:59:41;24.10;99.90
18753;DHT22;9505;50.882;5.350;2023-07-16T08:02:06;25.20;99.90
18753;DHT22;9505;50.882;5.350;2023-07-16T08:04:32;26.20;99.90
18753;DHT22;9505;50.882;5.350;2023-07-16T08:06:58;25.90;99.90
18753;DHT22;9505;50.882;5.350;2023-07-16T08:09:25;25.70;99.90
18753;DHT22;9505;50.882;5.350;2023-07-16T08:11:51;24.00;99.90
18753;DHT22;9505;50.882;5.350;2023-07-16T08:14:16;22.60;99.90
18753;DHT22;9505;50.882;5.350;2023-07-16T08:16:42;22.40;99.90
18753;DHT22;9505;50.882;5.350;2023-07-16T08:19:08;22.00;99.90
18753;DHT22;9505;50.882;5.350;2023-07-16T08:21:33;21.80;99.90
18753;DHT22;9505;50.882;5.350;2023-07-16T08:23:59;21.40;99.90
18753;DHT22;9505;50.882;5.350;2023-07-16T08:26:25;21.50;99.90
18753;DHT22;9505;50.882;5.350;2023-07-16T08:28:50;21.40;99.90
18753;DHT22;9505;50.882;5.350;2023-07-16T08:31:16;21.10;99.90
18753;DHT22;9505;50.882;5.350;2023-07-16T08:33:41;21.10;99.90
18753;DHT22;9505;50.882;5.350;2023-07-16T08:36:09;21.30;99.90
18753;DHT22;9505;50.882;5.350;2023-07-16T08:38:35;21.60;99.90
18753;DHT22;9505;50.882;5.350;2023-07-16T08:41:00;21.70;99.90
18753;DHT22;9505;50.882;5.350;2023-07-16T08:43:27;21.90;99.90
18753;DHT22;9505;50.882;5.350;2023-07-16T08:45:53;22.40;99.90
18753;DHT22;9505;50.882;5.350;2023-07-16T08:48:19;22.20;99.90
18753;DHT22;9505;50.882;5.350;2023-07-16T08:50:47;22.20;99.90
18753;DHT22;9505;50.882;5.350;2023-07-16T08:53:15;22.00;99.90
18753;DHT22;9505;50.882;5.350;2023-07-16T08:55:44;22.30;99.90
18753;DHT22;9505;50.882;5.350;2023-07-16T08:58:10;22.60;99.90
18753;DHT22;9505;50.882;5.350;2023-07-16T09:00:36;23.20;99.90
18753;DHT22;9505;50.882;5.350;2023-07-16T09:03:03;22.80;99.90
18753;DHT22;9505;50.882;5.350;2023-07-16T09:05:29;23.00;99.90
18753;DHT22;9505;50.882;5.350;2023-07-16T09:07:55;23.00;99.90
18753;DHT22;9505;50.882;5.350;2023-07-16T09:10:20;23.20;99.90
18753;DHT22;9505;50.882;5.350;2023-07-16T09:12:46;23.40;99.90
18753;DHT22;9505;50.882;5.350;2023-07-16T09:15:17;23.80;99.90
18753;DHT22;9505;50.882;5.350;2023-07-16T09:17:46;23.50;99.90
18753;DHT22;9505;50.882;5.350;2023-07-16T09:20:11;22.70;99.90
18753;DHT22;9505;50.882;5.350;2023-07-16T09:22:39;22.30;99.90
18753;DHT22;9505;50.882;5.350;2023-07-16T09:25:05;21.60;99.90
18753;DHT22;9505;50.882;5.350;2023-07-16T09:27:31;22.00;99.90
18753;DHT22;9505;50.882;5.350;2023-07-16T09:29:57;21.90;99.90
18753;DHT22;9505;50.882;5.350;2023-07-16T09:32:35;22.00;99.90
18753;DHT22;9505;50.882;5.350;2023-07-16T09:35:09;21.60;99.90
18753;DHT22;9505;50.882;5.350;2023-07-16T09:37:37;21.40;99.90
18753;DHT22;9505;50.882;5.350;2023-07-16T09:40:07;21.80;99.90
18753;DHT22;9505;50.882;5.350;2023-07-16T09:42:42;21.90;99.90
18753;DHT22;9505;50.882;5.350;2023-07-16T09:45:18;21.80;99.90
18753;DHT22;9505;50.882;5.350;2023-07-16T09:47:44;21.90;99.90
18753;DHT22;9505;50.882;5.350;2023-07-16T09:50:10;22.40;99.90
18753;DHT22;9505;50.882;5.350;2023-07-16T09:52:37;22.20;99.90
18753;DHT22;9505;50.882;5.350;2023-07-16T09:55:05;22.20;99.90
18753;DHT22;9505;50.882;5.350;2023-07-16T09:57:35;22.60;99.90
18753;DHT22;9505;50.882;5.350;2023-07-16T10:00:05;22.60;99.90
18753;DHT22;9505;50.882;5.350;2023-07-16T10:02:34;23.20;99.90
18753;DHT22;9505;50.882;5.350;2023-07-16T10:05:17;23.90;99.90
18753;DHT22;9505;50.882;5.350;2023-07-16T10:07:50;23.90;99.90
18753;DHT22;9505;50.882;5.350;2023-07-16T10:10:16;24.20;99.90
18753;DHT22;9505;50.882;5.350;2023-07-16T10:12:43;23.40;99.90
18753;DHT22;9505;50.882;5.350;2023-07-16T10:15:11;23.00;99.90
18753;DHT22;9505;50.882;5.350;2023-07-16T10:17:37;23.40;99.90
18753;DHT22;9505;50.882;5.350;2023-07-16T10:22:50;23.30;99.90
18753;DHT22;9505;50.882;5.350;2023-07-16T10:27:49;23.70;99.90
18753;DHT22;9505;50.882;5.350;2023-07-16T10:30:15;23.70;99.90
18753;DHT22;9505;50.882;5.350;2023-07-16T10:32:41;24.00;99.90
18753;DHT22;9505;50.882;5.350;2023-07-16T10:35:08;23.60;99.90
18753;DHT22;9505;50.882;5.350;2023-07-16T10:37:37;23.00;99.90
18753;DHT22;9505;50.882;5.350;2023-07-16T10:40:04;22.90;99.90
18753;DHT22;9505;50.882;5.350;2023-07-16T10:42:30;23.10;99.90
18753;DHT22;9505;50.882;5.350;2023-07-16T10:45:01;23.10;99.90
18753;DHT22;9505;50.882;5.350;2023-07-16T10:47:34;23.30;99.90
18753;DHT22;9505;50.882;5.350;2023-07-16T10:50:03;23.30;99.90
18753;DHT22;9505;50.882;5.350;2023-07-16T10:52:29;23.10;99.90
18753;DHT22;9505;50.882;5.350;2023-07-16T10:54:54;23.00;99.90
18753;DHT22;9505;50.882;5.350;2023-07-16T10:57:21;22.70;99.90
18753;DHT22;9505;50.882;5.350;2023-07-16T10:59:47;23.10;99.90
18753;DHT22;9505;50.882;5.350;2023-07-16T11:02:15;23.30;99.90
18753;DHT22;9505;50.882;5.350;2023-07-16T11:04:43;23.20;99.90
18753;DHT22;9505;50.882;5.350;2023-07-16T11:07:11;23.50;99.90
18753;DHT22;9505;50.882;5.350;2023-07-16T11:10:03;24.00;99.90
18753;DHT22;9505;50.882;5.350;2023-07-16T11:12:29;24.50;99.90
18753;DHT22;9505;50.882;5.350;2023-07-16T11:14:55;24.30;99.90
18753;DHT22;9505;50.882;5.350;2023-07-16T11:17:23;24.10;99.90
18753;DHT22;9505;50.882;5.350;2023-07-16T11:19:52;24.00;99.90
18753;DHT22;9505;50.882;5.350;2023-07-16T11:22:18;23.30;99.90
18753;DHT22;9505;50.882;5.350;2023-07-16T11:24:45;23.30;99.90
18753;DHT22;9505;50.882;5.350;2023-07-16T11:27:30;23.50;99.90
18753;DHT22;9505;50.882;5.350;2023-07-16T11:29:57;22.90;99.90
18753;DHT22;9505;50.882;5.350;2023-07-16T11:32:34;22.80;99.90
18753;DHT22;9505;50.882;5.350;2023-07-16T11:35:01;22.80;99.90
18753;DHT22;9505;50.882;5.350;2023-07-16T11:37:29;22.80;99.90
18753;DHT22;9505;50.882;5.350;2023-07-16T11:39:56;23.20;99.90
18753;DHT22;9505;50.882;5.350;2023-07-16T11:42:39;23.50;99.90
18753;DHT22;9505;50.882;5.350;2023-07-16T11:45:14;23.60;99.90
18753;DHT22;9505;50.882;5.350;2023-07-16T11:47:40;23.90;99.90
18753;DHT22;9505;50.882;5.350;2023-07-16T11:50:06;23.80;99.90
18753;DHT22;9505;50.882;5.350;2023-07-16T11:52:32;23.80;99.90
18753;DHT22;9505;50.882;5.350;2023-07-16T11:54:58;23.60;99.90
18753;DHT22;9505;50.882;5.350;2023-07-16T11:57:29;23.70;99.90
18753;DHT22;9505;50.882;5.350;2023-07-16T11:59:55;24.30;99.90
18753;DHT22;9505;50.882;5.350;2023-07-16T12:02:21;24.70;99.90
18753;DHT22;9505;50.882;5.350;2023-07-16T12:04:48;24.70;99.90
18753;DHT22;9505;50.882;5.350;2023-07-16T12:07:13;24.80;99.90
18753;DHT22;9505;50.882;5.350;2023-07-16T12:09:39;24.40;99.90
18753;DHT22;9505;50.882;5.350;2023-07-16T12:12:06;24.50;99.90
18753;DHT22;9505;50.882;5.350;2023-07-16T12:14:31;25.20;99.90
18753;DHT22;9505;50.882;5.350;2023-07-16T12:16:57;25.20;99.90
18753;DHT22;9505;50.882;5.350;2023-07-16T12:19:24;24.90;99.90
18753;DHT22;9505;50.882;5.350;2023-07-16T12:21:50;24.90;99.90
18753;DHT22;9505;50.882;5.350;2023-07-16T12:24:16;25.60;99.90
18753;DHT22;9505;50.882;5.350;2023-07-16T12:26:41;25.80;99.90
18753;DHT22;9505;50.882;5.350;2023-07-16T12:29:07;25.30;99.90
18753;DHT22;9505;50.882;5.350;2023-07-16T12:31:33;25.10;99.90
18753;DHT22;9505;50.882;5.350;2023-07-16T12:34:00;24.70;99.90
18753;DHT22;9505;50.882;5.350;2023-07-16T12:36:29;24.60;99.90
18753;DHT22;9505;50.882;5.350;2023-07-16T12:38:55;24.50;99.90
18753;DHT22;9505;50.882;5.350;2023-07-16T12:41:21;24.50;99.90
18753;DHT22;9505;50.882;5.350;2023-07-16T12:43:47;24.40;99.90
18753;DHT22;9505;50.882;5.350;2023-07-16T12:46:13;24.60;99.90
18753;DHT22;9505;50.882;5.350;2023-07-16T12:48:38;25.10;99.90
18753;DHT22;9505;50.882;5.350;2023-07-16T12:51:04;24.80;99.90
18753;DHT22;9505;50.882;5.350;2023-07-16T12:53:30;24.60;99.90
18753;DHT22;9505;50.882;5.350;2023-07-16T12:55:55;24.80;99.90
18753;DHT22;9505;50.882;5.350;2023-07-16T12:58:21;25.40;99.90
18753;DHT22;9505;50.882;5.350;2023-07-16T13:00:47;26.00;99.90
18753;DHT22;9505;50.882;5.350;2023-07-16T13:03:12;25.80;99.90
18753;DHT22;9505;50.882;5.350;2023-07-16T13:05:42;26.00;99.90
18753;DHT22;9505;50.882;5.350;2023-07-16T13:08:08;25.80;99.90
18753;DHT22;9505;50.882;5.350;2023-07-16T13:10:34;25.70;99.90
18753;DHT22;9505;50.882;5.350;2023-07-16T13:12:59;25.70;99.90
18753;DHT22;9505;50.882;5.350;2023-07-16T13:15:25;25.30;99.90
18753;DHT22;9505;50.882;5.350;2023-07-16T13:17:51;25.20;99.90
18753;DHT22;9505;50.882;5.350;2023-07-16T13:20:17;25.40;99.90
18753;DHT22;9505;50.882;5.350;2023-07-16T13:22:44;25.50;99.90
18753;DHT22;9505;50.882;5.350;2023-07-16T13:25:10;25.80;99.90
18753;DHT22;9505;50.882;5.350;2023-07-16T13:27:35;26.00;99.90
18753;DHT22;9505;50.882;5.350;2023-07-16T13:30:01;26.20;99.90
18753;DHT22;9505;50.882;5.350;2023-07-16T13:32:27;26.20;99.90
18753;DHT22;9505;50.882;5.350;2023-07-16T13:34:54;26.30;99.90
18753;DHT22;9505;50.882;5.350;2023-07-16T13:37:19;25.90;99.90
18753;DHT22;9505;50.882;5.350;2023-07-16T13:39:45;25.20;99.90
18753;DHT22;9505;50.882;5.350;2023-07-16T13:42:11;25.40;99.90
18753;DHT22;9505;50.882;5.350;2023-07-16T13:44:37;26.40;99.90
18753;DHT22;9505;50.882;5.350;2023-07-16T13:47:03;26.80;98.30
18753;DHT22;9505;50.882;5.350;2023-07-16T13:49:29;26.80;99.60
18753;DHT22;9505;50.882;5.350;2023-07-16T13:51:55;26.70;99.60
18753;DHT22;9505;50.882;5.350;2023-07-16T13:54:20;26.30;99.90
18753;DHT22;9505;50.882;5.350;2023-07-16T13:56:47;25.80;99.90
18753;DHT22;9505;50.882;5.350;2023-07-16T13:59:12;25.50;99.90
18753;DHT22;9505;50.882;5.350;2023-07-16T14:01:39;25.50;99.90
18753;DHT22;9505;50.882;5.350;2023-07-16T14:04:05;25.40;99.90
18753;DHT22;9505;50.882;5.350;2023-07-16T14:06:31;25.40;99.90
18753;DHT22;9505;50.882;5.350;2023-07-16T14:08:57;25.60;99.90
18753;DHT22;9505;50.882;5.350;2023-07-16T14:11:23;25.60;99.00
18753;DHT22;9505;50.882;5.350;2023-07-16T14:13:49;25.30;99.90
18753;DHT22;9505;50.882;5.350;2023-07-16T14:16:20;24.90;99.90
18753;DHT22;9505;50.882;5.350;2023-07-16T14:18:49;24.70;99.90
18753;DHT22;9505;50.882;5.350;2023-07-16T14:21:15;25.40;99.90
18753;DHT22;9505;50.882;5.350;2023-07-16T14:23:41;26.30;99.90
18753;DHT22;9505;50.882;5.350;2023-07-16T14:26:06;27.00;98.20
18753;DHT22;9505;50.882;5.350;2023-07-16T14:28:32;27.20;97.10
18753;DHT22;9505;50.882;5.350;2023-07-16T14:30:57;27.40;96.50
18753;DHT22;9505;50.882;5.350;2023-07-16T14:33:23;27.60;95.50
18753;DHT22;9505;50.882;5.350;2023-07-16T14:35:49;27.10;95.80
18753;DHT22;9505;50.882;5.350;2023-07-16T14:38:14;26.90;96.50
18753;DHT22;9505;50.882;5.350;2023-07-16T14:40:40;26.00;96.90
18753;DHT22;9505;50.882;5.350;2023-07-16T14:43:07;25.50;98.50
18753;DHT22;9505;50.882;5.350;2023-07-16T14:45:34;25.50;98.50
18753;DHT22;9505;50.882;5.350;2023-07-16T14:48:00;26.00;98.20
18753;DHT22;9505;50.882;5.350;2023-07-16T14:50:26;26.30;97.80
18753;DHT22;9505;50.882;5.350;2023-07-16T14:52:52;26.20;98.50
18753;DHT22;9505;50.882;5.350;2023-07-16T14:55:18;26.10;98.60
18753;DHT22;9505;50.882;5.350;2023-07-16T14:57:44;26.10;98.00
18753;DHT22;9505;50.882;5.350;2023-07-16T15:00:10;26.00;98.30
18753;DHT22;9505;50.882;5.350;2023-07-16T15:02:37;26.20;97.00
18753;DHT22;9505;50.882;5.350;2023-07-16T15:05:03;26.20;96.50
18753;DHT22;9505;50.882;5.350;2023-07-16T15:07:30;25.80;96.20
18753;DHT22;9505;50.882;5.350;2023-07-16T15:09:56;25.40;97.30
18753;DHT22;9505;50.882;5.350;2023-07-16T15:12:21;25.30;97.00
18753;DHT22;9505;50.882;5.350;2023-07-16T15:14:47;25.50;98.30
18753;DHT22;9505;50.882;5.350;2023-07-16T15:17:13;25.90;96.70
18753;DHT22;9505;50.882;5.350;2023-07-16T15:19:39;25.80;98.20
18753;DHT22;9505;50.882;5.350;2023-07-16T15:22:06;25.30;97.60
18753;DHT22;9505;50.882;5.350;2023-07-16T15:24:32;24.90;98.40
18753;DHT22;9505;50.882;5.350;2023-07-16T15:26:58;25.10;99.20
18753;DHT22;9505;50.882;5.350;2023-07-16T15:29:24;25.30;98.80
18753;DHT22;9505;50.882;5.350;2023-07-16T15:31:49;25.40;98.50
18753;DHT22;9505;50.882;5.350;2023-07-16T15:34:15;25.50;98.30
18753;DHT22;9505;50.882;5.350;2023-07-16T15:36:40;25.40;98.40
18753;DHT22;9505;50.882;5.350;2023-07-16T15:39:06;25.20;99.10
18753;DHT22;9505;50.882;5.350;2023-07-16T15:41:33;25.30;99.40
18753;DHT22;9505;50.882;5.350;2023-07-16T15:43:58;25.40;98.20
18753;DHT22;9505;50.882;5.350;2023-07-16T15:46:24;25.40;97.70
18753;DHT22;9505;50.882;5.350;2023-07-16T15:48:50;25.10;97.80
18753;DHT22;9505;50.882;5.350;2023-07-16T15:51:15;24.80;99.20
18753;DHT22;9505;50.882;5.350;2023-07-16T15:53:41;24.90;98.50